sensor_id;sensor_type;location;lat;lon;timestamp;pressure;altitude;pressure_sealevel;temperature;humidity
21781;BME280;52576;53.614;9.894;2023-01-26T00:00:27;102219.63;;;-1.56;83.84
21781;BME280;52576;53.614;9.894;2023-01-26T00:02:31;102220.47;;;-1.57;83.84
21781;BME280;52576;53.614;9.894;2023-01-26T00:04:36;102217.03;;;-1.59;83.92
21781;BME280;52576;53.614;9.894;2023-01-26T00:06:39;102212.75;;;-1.60;83.85
21781;BME280;52576;53.614;9.894;2023-01-26T00:08:43;102217.88;;;-1.60;83.94
21781;BME280;52576;53.614;9.894;2023-01-26T00:10:46;102214.44;;;-1.62;83.84
21781;BME280;52576;53.614;9.894;2023-01-26T00:12:51;102212.72;;;-1.63;83.95
21781;BME280;52576;53.614;9.894;2023-01-26T00:14:54;102212.72;;;-1.63;83.97
21781;BME280;52576;53.614;9.894;2023-01-26T00:16:57;102205.88;;;-1.61;84.02
21781;BME280;52576;53.614;9.894;2023-01-26T00:19:01;102203.31;;;-1.61;84.11
21781;BME280;52576;53.614;9.894;2023-01-26T00:21:07;102202.44;;;-1.60;84.13
21781;BME280;52576;53.614;9.894;2023-01-26T00:23:10;102201.59;;;-1.61;84.01
21781;BME280;52576;53.614;9.894;2023-01-26T00:25:13;102193.03;;;-1.60;84.17
21781;BME280;52576;53.614;9.894;2023-01-26T00:27:16;102204.19;;;-1.59;84.26
21781;BME280;52576;53.614;9.894;2023-01-26T00:29:19;102203.31;;;-1.58;84.10
21781;BME280;52576;53.614;9.894;2023-01-26T00:31:24;102201.63;;;-1.58;84.22
21781;BME280;52576;53.614;9.894;2023-01-26T00:33:28;102193.03;;;-1.58;84.28
21781;BME280;52576;53.614;9.894;2023-01-26T00:35:31;102186.19;;;-1.58;84.16
21781;BME280;52576;53.614;9.894;2023-01-26T00:37:37;102186.19;;;-1.58;84.12
21781;BME280;52576;53.614;9.894;2023-01-26T00:39:40;102185.31;;;-1.58;84.19
21781;BME280;52576;53.614;9.894;2023-01-26T00:41:43;102176.75;;;-1.57;84.17
21781;BME280;52576;53.614;9.894;2023-01-26T00:44:03;102186.19;;;-1.56;84.22
21781;BME280;52576;53.614;9.894;2023-01-26T00:46:07;102181.91;;;-1.57;84.20
21781;BME280;52576;53.614;9.894;2023-01-26T00:48:10;102177.63;;;-1.58;84.15
21781;BME280;52576;53.614;9.894;2023-01-26T00:50:14;102173.31;;;-1.59;84.25
21781;BME280;52576;53.614;9.894;2023-01-26T00:52:18;102180.19;;;-1.58;84.23
21781;BME280;52576;53.614;9.894;2023-01-26T00:54:22;102174.19;;;-1.59;84.27
21781;BME280;52576;53.614;9.894;2023-01-26T00:56:26;102188.75;;;-1.59;84.32
21781;BME280;52576;53.614;9.894;2023-01-26T00:58:29;102178.44;;;-1.61;84.05
21781;BME280;52576;53.614;9.894;2023-01-26T01:00:33;102175.03;;;-1.61;84.29
21781;BME280;52576;53.614;9.894;2023-01-26T01:02:38;102172.47;;;-1.60;84.37
21781;BME280;52576;53.614;9.894;2023-01-26T01:04:41;102164.75;;;-1.60;84.44
21781;BME280;52576;53.614;9.894;2023-01-26T01:06:44;102171.63;;;-1.59;84.36
21781;BME280;52576;53.614;9.894;2023-01-26T01:08:48;102159.59;;;-1.61;84.56
21781;BME280;52576;53.614;9.894;2023-01-26T01:11:01;102167.31;;;-1.61;84.51
21781;BME280;52576;53.614;9.894;2023-01-26T01:13:04;102163.88;;;-1.62;84.56
21781;BME280;52576;53.614;9.894;2023-01-26T01:15:08;102162.16;;;-1.61;84.48
21781;BME280;52576;53.614;9.894;2023-01-26T01:17:13;102159.59;;;-1.61;84.56
21781;BME280;52576;53.614;9.894;2023-01-26T01:19:17;102156.16;;;-1.63;84.55
21781;BME280;52576;53.614;9.894;2023-01-26T01:21:21;102159.59;;;-1.61;84.65
21781;BME280;52576;53.614;9.894;2023-01-26T01:23:27;102157.03;;;-1.61;84.64
21781;BME280;52576;53.614;9.894;2023-01-26T01:25:30;102153.59;;;-1.60;84.71
21781;BME280;52576;53.614;9.894;2023-01-26T01:27:37;102147.63;;;-1.59;84.80
21781;BME280;52576;53.614;9.894;2023-01-26T01:29:40;102155.34;;;-1.58;84.72
21781;BME280;52576;53.614;9.894;2023-01-26T01:31:43;102149.31;;;-1.60;84.73
21781;BME280;52576;53.614;9.894;2023-01-26T01:33:47;102145.91;;;-1.60;84.74
21781;BME280;52576;53.614;9.894;2023-01-26T01:35:57;102143.31;;;-1.60;84.83
21781;BME280;52576;53.614;9.894;2023-01-26T01:38:00;102153.59;;;-1.62;84.83
21781;BME280;52576;53.614;9.894;2023-01-26T01:40:05;102141.59;;;-1.63;84.69
21781;BME280;52576;53.614;9.894;2023-01-26T01:42:09;102151.00;;;-1.63;84.89
21781;BME280;52576;53.614;9.894;2023-01-26T01:44:17;102146.72;;;-1.63;84.81
21781;BME280;52576;53.614;9.894;2023-01-26T01:46:28;102148.44;;;-1.63;84.87
21781;BME280;52576;53.614;9.894;2023-01-26T01:48:37;102149.28;;;-1.64;84.89
21781;BME280;52576;53.614;9.894;2023-01-26T01:50:45;102147.56;;;-1.65;85.00
21781;BME280;52576;53.614;9.894;2023-01-26T01:52:48;102144.16;;;-1.64;84.93
21781;BME280;52576;53.614;9.894;2023-01-26T01:54:54;102140.72;;;-1.63;85.01
21781;BME280;52576;53.614;9.894;2023-01-26T01:57:01;102140.72;;;-1.63;85.25
21781;BME280;52576;53.614;9.894;2023-01-26T01:59:08;102136.47;;;-1.61;85.05
21781;BME280;52576;53.614;9.894;2023-01-26T02:01:13;102143.31;;;-1.60;85.02
21781;BME280;52576;53.614;9.894;2023-01-26T02:03:18;102140.75;;;-1.60;85.17
21781;BME280;52576;53.614;9.894;2023-01-26T02:05:26;102146.75;;;-1.58;85.18
21781;BME280;52576;53.614;9.894;2023-01-26T02:07:35;102139.91;;;-1.56;85.57
21781;BME280;52576;53.614;9.894;2023-01-26T02:09:42;102144.19;;;-1.55;85.22
21781;BME280;52576;53.614;9.894;2023-01-26T02:12:03;102140.75;;;-1.54;85.38
21781;BME280;52576;53.614;9.894;2023-01-26T02:14:09;102125.34;;;-1.51;85.41
21781;BME280;52576;53.614;9.894;2023-01-26T02:16:15;102127.06;;;-1.50;85.38
21781;BME280;52576;53.614;9.894;2023-01-26T02:18:19;102133.09;;;-1.48;85.52
21781;BME280;52576;53.614;9.894;2023-01-26T02:20:27;102130.50;;;-1.48;85.34
21781;BME280;52576;53.614;9.894;2023-01-26T02:22:40;102128.78;;;-1.49;85.28
21781;BME280;52576;53.614;9.894;2023-01-26T02:24:49;102124.50;;;-1.49;85.31
21781;BME280;52576;53.614;9.894;2023-01-26T02:26:56;102125.38;;;-1.48;85.42
21781;BME280;52576;53.614;9.894;2023-01-26T02:29:03;102117.66;;;-1.48;85.45
21781;BME280;52576;53.614;9.894;2023-01-26T02:31:11;102118.53;;;-1.46;85.40
21781;BME280;52576;53.614;9.894;2023-01-26T02:33:16;102124.53;;;-1.44;85.41
21781;BME280;52576;53.614;9.894;2023-01-26T02:35:20;102115.13;;;-1.42;85.52
21781;BME280;52576;53.614;9.894;2023-01-26T02:37:23;102121.13;;;-1.39;85.59
21781;BME280;52576;53.614;9.894;2023-01-26T02:39:37;102112.56;;;-1.36;85.54
21781;BME280;52576;53.614;9.894;2023-01-26T02:41:43;102118.59;;;-1.34;85.62
21781;BME280;52576;53.614;9.894;2023-01-26T02:44:09;102116.88;;;-1.32;85.51
21781;BME280;52576;53.614;9.894;2023-01-26T02:46:13;102113.44;;;-1.31;85.64
21781;BME280;52576;53.614;9.894;2023-01-26T02:48:16;102117.75;;;-1.31;85.44
21781;BME280;52576;53.614;9.894;2023-01-26T02:50:40;102112.59;;;-1.33;85.46
21781;BME280;52576;53.614;9.894;2023-01-26T02:52:43;102108.28;;;-1.34;85.52
21781;BME280;52576;53.614;9.894;2023-01-26T02:54:52;102104.00;;;-1.33;85.52
21781;BME280;52576;53.614;9.894;2023-01-26T02:57:13;102104.00;;;-1.32;85.43
21781;BME280;52576;53.614;9.894;2023-01-26T02:59:19;102104.88;;;-1.30;85.42
21781;BME280;52576;53.614;9.894;2023-01-26T03:01:22;102092.00;;;-1.28;85.45
21781;BME280;52576;53.614;9.894;2023-01-26T03:03:27;102098.00;;;-1.28;85.59
21781;BME280;52576;53.614;9.894;2023-01-26T03:05:43;102098.00;;;-1.28;85.55
21781;BME280;52576;53.614;9.894;2023-01-26T03:07:46;102092.84;;;-1.28;85.49
21781;BME280;52576;53.614;9.894;2023-01-26T03:09:49;102089.44;;;-1.30;85.45
21781;BME280;52576;53.614;9.894;2023-01-26T03:11:53;102094.59;;;-1.30;85.30
21781;BME280;52576;53.614;9.894;2023-01-26T03:13:56;102098.03;;;-1.31;85.32
21781;BME280;52576;53.614;9.894;2023-01-26T03:16:01;102094.59;;;-1.33;85.19
21781;BME280;52576;53.614;9.894;2023-01-26T03:18:09;102094.59;;;-1.33;85.27
21781;BME280;52576;53.614;9.894;2023-01-26T03:20:29;102093.72;;;-1.33;85.39
21781;BME280;52576;53.614;9.894;2023-01-26T03:22:50;102090.28;;;-1.32;85.45
21781;BME280;52576;53.614;9.894;2023-01-26T03:25:10;102086.00;;;-1.32;85.30
21781;BME280;52576;53.614;9.894;2023-01-26T03:27:37;102091.16;;;-1.32;85.29
21781;BME280;52576;53.614;9.894;2023-01-26T03:29:41;102083.44;;;-1.33;85.30
21781;BME280;52576;53.614;9.894;2023-01-26T03:31:46;102084.28;;;-1.33;85.43
21781;BME280;52576;53.614;9.894;2023-01-26T03:33:49;102087.72;;;-1.31;85.54
21781;BME280;52576;53.614;9.894;2023-01-26T03:35:53;102087.72;;;-1.31;85.50
21781;BME280;52576;53.614;9.894;2023-01-26T03:37:57;102087.72;;;-1.31;85.37
21781;BME280;52576;53.614;9.894;2023-01-26T03:40:14;102078.31;;;-1.32;85.37
21781;BME280;52576;53.614;9.894;2023-01-26T03:42:35;102076.59;;;-1.31;85.48
21781;BME280;52576;53.614;9.894;2023-01-26T03:44:56;102070.59;;;-1.32;85.46
21781;BME280;52576;53.614;9.894;2023-01-26T03:47:18;102070.59;;;-1.32;85.49
21781;BME280;52576;53.614;9.894;2023-01-26T03:49:39;102068.88;;;-1.33;85.60
21781;BME280;52576;53.614;9.894;2023-01-26T03:52:00;102072.28;;;-1.34;85.48
21781;BME280;52576;53.614;9.894;2023-01-26T03:54:22;102067.16;;;-1.34;85.50
21781;BME280;52576;53.614;9.894;2023-01-26T03:56:42;102062.84;;;-1.33;85.60
21781;BME280;52576;53.614;9.894;2023-01-26T03:58:50;102068.00;;;-1.33;85.54
21781;BME280;52576;53.614;9.894;2023-01-26T04:00:56;102068.00;;;-1.33;85.69
21781;BME280;52576;53.614;9.894;2023-01-26T04:03:01;102067.16;;;-1.31;85.64
21781;BME280;52576;53.614;9.894;2023-01-26T04:05:21;102065.41;;;-1.29;85.88
21781;BME280;52576;53.614;9.894;2023-01-26T04:07:42;102065.44;;;-1.26;85.89
21781;BME280;52576;53.614;9.894;2023-01-26T04:10:03;102068.00;;;-1.23;85.96
21781;BME280;52576;53.614;9.894;2023-01-26T04:12:06;102072.31;;;-1.22;85.84
21781;BME280;52576;53.614;9.894;2023-01-26T04:14:20;102065.44;;;-1.23;85.81
21781;BME280;52576;53.614;9.894;2023-01-26T04:16:55;102061.16;;;-1.22;85.84
21781;BME280;52576;53.614;9.894;2023-01-26T04:19:17;102056.84;;;-1.25;85.76
21781;BME280;52576;53.614;9.894;2023-01-26T04:21:38;102062.84;;;-1.26;85.70
21781;BME280;52576;53.614;9.894;2023-01-26T04:23:55;102063.72;;;-1.24;85.84
21781;BME280;52576;53.614;9.894;2023-01-26T04:25:59;102064.56;;;-1.25;85.75
21781;BME280;52576;53.614;9.894;2023-01-26T04:28:03;102060.28;;;-1.23;85.93
21781;BME280;52576;53.614;9.894;2023-01-26T04:30:08;102068.03;;;-1.21;85.96
21781;BME280;52576;53.614;9.894;2023-01-26T04:32:13;102061.16;;;-1.22;85.86
21781;BME280;52576;53.614;9.894;2023-01-26T04:34:18;102062.00;;;-1.22;85.93
21781;BME280;52576;53.614;9.894;2023-01-26T04:36:21;102063.72;;;-1.21;85.81
21781;BME280;52576;53.614;9.894;2023-01-26T04:38:25;102063.72;;;-1.21;85.83
21781;BME280;52576;53.614;9.894;2023-01-26T04:40:29;102060.31;;;-1.20;85.81
21781;BME280;52576;53.614;9.894;2023-01-26T04:42:32;102056.88;;;-1.19;85.86
21781;BME280;52576;53.614;9.894;2023-01-26T04:44:37;102056.88;;;-1.19;85.77
21781;BME280;52576;53.614;9.894;2023-01-26T04:46:40;102059.47;;;-1.16;85.97
21781;BME280;52576;53.614;9.894;2023-01-26T04:48:46;102053.47;;;-1.15;85.94
21781;BME280;52576;53.614;9.894;2023-01-26T04:50:53;102052.63;;;-1.12;85.75
21781;BME280;52576;53.614;9.894;2023-01-26T04:52:58;102056.91;;;-1.10;86.05
21781;BME280;52576;53.614;9.894;2023-01-26T04:55:02;102056.06;;;-1.07;86.01
21781;BME280;52576;53.614;9.894;2023-01-26T04:57:07;102051.78;;;-1.07;86.07
21781;BME280;52576;53.614;9.894;2023-01-26T04:59:14;102051.78;;;-1.07;85.85
21781;BME280;52576;53.614;9.894;2023-01-26T05:01:18;102054.34;;;-1.07;85.93
21781;BME280;52576;53.614;9.894;2023-01-26T05:03:23;102046.63;;;-1.05;85.94
21781;BME280;52576;53.614;9.894;2023-01-26T05:05:26;102050.06;;;-1.05;85.91
21781;BME280;52576;53.614;9.894;2023-01-26T05:07:31;102046.59;;;-1.02;85.92
21781;BME280;52576;53.614;9.894;2023-01-26T05:09:36;102044.03;;;-1.00;86.05
21781;BME280;52576;53.614;9.894;2023-01-26T05:12:02;102055.19;;;-0.98;85.99
21781;BME280;52576;53.614;9.894;2023-01-26T05:14:39;102050.03;;;-0.98;86.01
21781;BME280;52576;53.614;9.894;2023-01-26T05:17:03;102045.75;;;-0.96;85.97
21781;BME280;52576;53.614;9.894;2023-01-26T05:19:41;102047.47;;;-0.95;85.98
21781;BME280;52576;53.614;9.894;2023-01-26T05:22:10;102041.47;;;-0.94;86.17
21781;BME280;52576;53.614;9.894;2023-01-26T05:24:23;102046.63;;;-0.91;86.07
21781;BME280;52576;53.614;9.894;2023-01-26T05:26:35;102048.34;;;-0.90;86.00
21781;BME280;52576;53.614;9.894;2023-01-26T05:28:43;102050.06;;;-0.89;86.04
21781;BME280;52576;53.614;9.894;2023-01-26T05:30:46;102048.34;;;-0.90;86.03
21781;BME280;52576;53.614;9.894;2023-01-26T05:32:49;102049.22;;;-0.88;85.96
21781;BME280;52576;53.614;9.894;2023-01-26T05:34:53;102034.63;;;-0.88;86.08
21781;BME280;52576;53.614;9.894;2023-01-26T05:36:56;102043.19;;;-0.87;86.08
21781;BME280;52576;53.614;9.894;2023-01-26T05:38:59;102036.34;;;-0.88;85.90
21781;BME280;52576;53.614;9.894;2023-01-26T05:41:08;102038.06;;;-0.87;86.04
21781;BME280;52576;53.614;9.894;2023-01-26T05:43:25;102042.34;;;-0.86;85.99
21781;BME280;52576;53.614;9.894;2023-01-26T05:45:42;102041.50;;;-0.85;85.99
21781;BME280;52576;53.614;9.894;2023-01-26T05:47:48;102043.22;;;-0.84;86.00
21781;BME280;52576;53.614;9.894;2023-01-26T05:49:52;102037.19;;;-0.85;86.03
21781;BME280;52576;53.614;9.894;2023-01-26T05:51:59;102036.34;;;-0.84;85.93
21781;BME280;52576;53.614;9.894;2023-01-26T05:54:04;102049.22;;;-0.82;85.93
21781;BME280;52576;53.614;9.894;2023-01-26T05:56:09;102051.78;;;-0.82;86.08
21781;BME280;52576;53.614;9.894;2023-01-26T05:58:17;102055.22;;;-0.83;86.00
21781;BME280;52576;53.614;9.894;2023-01-26T06:00:22;102050.94;;;-0.86;86.00
21781;BME280;52576;53.614;9.894;2023-01-26T06:02:33;102050.06;;;-0.86;85.92
21781;BME280;52576;53.614;9.894;2023-01-26T06:04:37;102055.22;;;-0.88;85.81
21781;BME280;52576;53.614;9.894;2023-01-26T06:06:41;102044.06;;;-0.88;85.92
21781;BME280;52576;53.614;9.894;2023-01-26T06:09:06;102048.34;;;-0.87;85.98
21781;BME280;52576;53.614;9.894;2023-01-26T06:11:27;102056.94;;;-0.88;86.05
21781;BME280;52576;53.614;9.894;2023-01-26T06:13:42;102056.94;;;-0.88;85.99
21781;BME280;52576;53.614;9.894;2023-01-26T06:15:59;102053.50;;;-0.87;86.12
21781;BME280;52576;53.614;9.894;2023-01-26T06:18:04;102049.22;;;-0.87;85.99
21781;BME280;52576;53.614;9.894;2023-01-26T06:20:09;102054.34;;;-0.87;86.00
21781;BME280;52576;53.614;9.894;2023-01-26T06:22:13;102058.66;;;-0.84;86.20
21781;BME280;52576;53.614;9.894;2023-01-26T06:24:20;102048.34;;;-0.84;86.12
21781;BME280;52576;53.614;9.894;2023-01-26T06:26:27;102054.38;;;-0.82;86.08
21781;BME280;52576;53.614;9.894;2023-01-26T06:28:31;102056.94;;;-0.82;86.14
21781;BME280;52576;53.614;9.894;2023-01-26T06:30:35;102048.34;;;-0.81;86.04
21781;BME280;52576;53.614;9.894;2023-01-26T06:32:46;102053.50;;;-0.78;86.22
21781;BME280;52576;53.614;9.894;2023-01-26T06:34:51;102060.34;;;-0.77;86.16
21781;BME280;52576;53.614;9.894;2023-01-26T06:36:56;102060.34;;;-0.77;86.17
21781;BME280;52576;53.614;9.894;2023-01-26T06:39:04;102068.97;;;-0.78;86.01
21781;BME280;52576;53.614;9.894;2023-01-26T06:41:09;102070.66;;;-0.77;86.19
21781;BME280;52576;53.614;9.894;2023-01-26T06:43:14;102065.50;;;-0.77;86.12
21781;BME280;52576;53.614;9.894;2023-01-26T06:45:17;102070.66;;;-0.77;86.16
21781;BME280;52576;53.614;9.894;2023-01-26T06:47:22;102072.38;;;-0.76;86.05
21781;BME280;52576;53.614;9.894;2023-01-26T06:49:26;102065.50;;;-0.74;86.06
21781;BME280;52576;53.614;9.894;2023-01-26T06:51:51;102068.06;;;-0.74;86.10
21781;BME280;52576;53.614;9.894;2023-01-26T06:54:13;102062.06;;;-0.73;86.09
21781;BME280;52576;53.614;9.894;2023-01-26T06:56:34;102056.06;;;-0.75;85.96
21781;BME280;52576;53.614;9.894;2023-01-26T06:58:56;102057.78;;;-0.74;86.04
21781;BME280;52576;53.614;9.894;2023-01-26T07:01:21;102054.34;;;-0.75;85.97
21781;BME280;52576;53.614;9.894;2023-01-26T07:03:25;102053.50;;;-0.72;85.97
21781;BME280;52576;53.614;9.894;2023-01-26T07:05:28;102050.91;;;-0.71;86.12
21781;BME280;52576;53.614;9.894;2023-01-26T07:07:31;102056.94;;;-0.70;85.93
21781;BME280;52576;53.614;9.894;2023-01-26T07:09:35;102060.34;;;-0.68;86.02
21781;BME280;52576;53.614;9.894;2023-01-26T07:11:38;102069.81;;;-0.67;86.04
21781;BME280;52576;53.614;9.894;2023-01-26T07:13:41;102067.22;;;-0.67;86.04
21781;BME280;52576;53.614;9.894;2023-01-26T07:15:46;102068.09;;;-0.63;85.95
21781;BME280;52576;53.614;9.894;2023-01-26T07:17:49;102073.25;;;-0.63;86.06
21781;BME280;52576;53.614;9.894;2023-01-26T07:19:52;102074.97;;;-0.62;86.03
21781;BME280;52576;53.614;9.894;2023-01-26T07:21:56;102075.81;;;-0.62;85.98
21781;BME280;52576;53.614;9.894;2023-01-26T07:23:59;102072.38;;;-0.61;86.06
21781;BME280;52576;53.614;9.894;2023-01-26T07:26:03;102069.81;;;-0.59;86.17
21781;BME280;52576;53.614;9.894;2023-01-26T07:28:06;102066.38;;;-0.57;86.21
21781;BME280;52576;53.614;9.894;2023-01-26T07:30:12;102069.81;;;-0.56;86.21
21781;BME280;52576;53.614;9.894;2023-01-26T07:32:17;102068.97;;;-0.55;86.20
21781;BME280;52576;53.614;9.894;2023-01-26T07:34:20;102081.84;;;-0.52;86.22
21781;BME280;52576;53.614;9.894;2023-01-26T07:36:23;102084.38;;;-0.51;86.21
21781;BME280;52576;53.614;9.894;2023-01-26T07:38:27;102089.53;;;-0.48;86.25
21781;BME280;52576;53.614;9.894;2023-01-26T07:40:31;102091.25;;;-0.47;86.06
21781;BME280;52576;53.614;9.894;2023-01-26T07:42:35;102089.53;;;-0.45;86.20
21781;BME280;52576;53.614;9.894;2023-01-26T07:44:49;102086.09;;;-0.44;86.14
21781;BME280;52576;53.614;9.894;2023-01-26T07:46:53;102081.81;;;-0.43;86.17
21781;BME280;52576;53.614;9.894;2023-01-26T07:48:58;102093.81;;;-0.42;86.22
21781;BME280;52576;53.614;9.894;2023-01-26T07:51:02;102091.25;;;-0.41;86.17
21781;BME280;52576;53.614;9.894;2023-01-26T07:53:06;102081.81;;;-0.39;86.23
21781;BME280;52576;53.614;9.894;2023-01-26T07:55:10;102082.66;;;-0.35;86.12
21781;BME280;52576;53.614;9.894;2023-01-26T07:57:13;102084.38;;;-0.32;85.96
21781;BME280;52576;53.614;9.894;2023-01-26T07:59:17;102074.94;;;-0.30;86.15
21781;BME280;52576;53.614;9.894;2023-01-26T08:01:25;102080.09;;;-0.30;86.09
21781;BME280;52576;53.614;9.894;2023-01-26T08:03:28;102084.38;;;-0.29;86.10
21781;BME280;52576;53.614;9.894;2023-01-26T08:05:34;102084.38;;;-0.29;86.10
21781;BME280;52576;53.614;9.894;2023-01-26T08:07:43;102088.69;;;-0.28;85.98
21781;BME280;52576;53.614;9.894;2023-01-26T08:09:47;102091.25;;;-0.28;85.97
21781;BME280;52576;53.614;9.894;2023-01-26T08:11:51;102079.22;;;-0.26;86.03
21781;BME280;52576;53.614;9.894;2023-01-26T08:13:55;102082.63;;;-0.24;85.99
21781;BME280;52576;53.614;9.894;2023-01-26T08:16:02;102093.81;;;-0.22;85.89
21781;BME280;52576;53.614;9.894;2023-01-26T08:18:06;102099.81;;;-0.20;85.89
21781;BME280;52576;53.614;9.894;2023-01-26T08:20:10;102085.22;;;-0.20;86.00
21781;BME280;52576;53.614;9.894;2023-01-26T08:22:16;102104.97;;;-0.19;86.04
21781;BME280;52576;53.614;9.894;2023-01-26T08:24:19;102108.41;;;-0.18;85.86
21781;BME280;52576;53.614;9.894;2023-01-26T08:26:23;102110.13;;;-0.17;86.11
21781;BME280;52576;53.614;9.894;2023-01-26T08:28:26;102104.09;;;-0.18;86.00
21781;BME280;52576;53.614;9.894;2023-01-26T08:30:29;102098.09;;;-0.18;85.98
21781;BME280;52576;53.614;9.894;2023-01-26T08:32:33;102102.38;;;-0.19;85.87
21781;BME280;52576;53.614;9.894;2023-01-26T08:34:38;102098.97;;;-0.19;85.74
21781;BME280;52576;53.614;9.894;2023-01-26T08:36:42;102094.66;;;-0.17;85.84
21781;BME280;52576;53.614;9.894;2023-01-26T08:38:47;102104.09;;;-0.18;85.72
21781;BME280;52576;53.614;9.894;2023-01-26T08:40:51;102113.56;;;-0.18;85.89
21781;BME280;52576;53.614;9.894;2023-01-26T08:42:56;102110.97;;;-0.20;86.00
21781;BME280;52576;53.614;9.894;2023-01-26T08:45:01;102113.56;;;-0.21;85.86
21781;BME280;52576;53.614;9.894;2023-01-26T08:47:04;102110.97;;;-0.23;85.80
21781;BME280;52576;53.614;9.894;2023-01-26T08:49:08;102107.53;;;-0.23;85.99
21781;BME280;52576;53.614;9.894;2023-01-26T08:51:11;102113.56;;;-0.21;85.93
21781;BME280;52576;53.614;9.894;2023-01-26T08:53:14;102111.84;;;-0.19;85.98
21781;BME280;52576;53.614;9.894;2023-01-26T08:55:20;102110.13;;;-0.17;86.06
21781;BME280;52576;53.614;9.894;2023-01-26T08:57:23;102108.41;;;-0.15;86.16
21781;BME280;52576;53.614;9.894;2023-01-26T08:59:27;102114.41;;;-0.12;86.08
21781;BME280;52576;53.614;9.894;2023-01-26T09:01:30;102107.53;;;-0.10;86.10
21781;BME280;52576;53.614;9.894;2023-01-26T09:03:33;102110.13;;;-0.08;86.20
21781;BME280;52576;53.614;9.894;2023-01-26T09:05:39;102110.13;;;-0.05;86.21
21781;BME280;52576;53.614;9.894;2023-01-26T09:07:42;102112.69;;;-0.04;86.08
21781;BME280;52576;53.614;9.894;2023-01-26T09:09:46;102107.53;;;-0.04;86.12
21781;BME280;52576;53.614;9.894;2023-01-26T09:11:54;102103.25;;;-0.03;86.16
21781;BME280;52576;53.614;9.894;2023-01-26T09:13:57;102102.38;;;-0.02;86.00
21781;BME280;52576;53.614;9.894;2023-01-26T09:16:02;102102.38;;;-0.02;85.99
21781;BME280;52576;53.614;9.894;2023-01-26T09:18:12;102102.38;;;-0.01;86.01
21781;BME280;52576;53.614;9.894;2023-01-26T09:20:20;102101.50;;;0.02;86.02
21781;BME280;52576;53.614;9.894;2023-01-26T09:22:25;102091.19;;;0.02;85.98
21781;BME280;52576;53.614;9.894;2023-01-26T09:24:28;102098.06;;;0.03;86.00
21781;BME280;52576;53.614;9.894;2023-01-26T09:26:32;102108.34;;;0.06;85.91
21781;BME280;52576;53.614;9.894;2023-01-26T09:28:38;102110.06;;;0.09;86.07
21781;BME280;52576;53.614;9.894;2023-01-26T09:30:41;102114.38;;;0.11;86.13
21781;BME280;52576;53.614;9.894;2023-01-26T09:32:44;102107.50;;;0.15;86.18
21781;BME280;52576;53.614;9.894;2023-01-26T09:34:47;102101.47;;;0.16;86.09
21781;BME280;52576;53.614;9.894;2023-01-26T09:36:51;102084.28;;;0.16;85.97
21781;BME280;52576;53.614;9.894;2023-01-26T09:38:54;102080.84;;;0.17;85.98
21781;BME280;52576;53.614;9.894;2023-01-26T09:41:04;102080.84;;;0.20;85.96
21781;BME280;52576;53.614;9.894;2023-01-26T09:43:19;102098.03;;;0.24;85.98
21781;BME280;52576;53.614;9.894;2023-01-26T09:45:28;102091.97;;;0.30;85.91
21781;BME280;52576;53.614;9.894;2023-01-26T09:47:44;102083.34;;;0.36;86.09
21781;BME280;52576;53.614;9.894;2023-01-26T09:49:57;102086.78;;;0.39;85.95
21781;BME280;52576;53.614;9.894;2023-01-26T09:52:05;102079.03;;;0.41;85.73
21781;BME280;52576;53.614;9.894;2023-01-26T09:54:17;102090.19;;;0.44;85.80
21781;BME280;52576;53.614;9.894;2023-01-26T09:56:27;102091.06;;;0.48;85.81
21781;BME280;52576;53.614;9.894;2023-01-26T09:58:37;102091.06;;;0.48;85.91
21781;BME280;52576;53.614;9.894;2023-01-26T10:00:45;102080.72;;;0.48;85.65
21781;BME280;52576;53.614;9.894;2023-01-26T10:02:59;102082.47;;;0.46;85.59
21781;BME280;52576;53.614;9.894;2023-01-26T10:05:12;102091.06;;;0.45;85.62
21781;BME280;52576;53.614;9.894;2023-01-26T10:07:17;102086.75;;;0.45;85.43
21781;BME280;52576;53.614;9.894;2023-01-26T10:09:24;102084.19;;;0.47;85.65
21781;BME280;52576;53.614;9.894;2023-01-26T10:11:31;102079.00;;;0.48;85.58
21781;BME280;52576;53.614;9.894;2023-01-26T10:13:38;102077.28;;;0.49;85.63
21781;BME280;52576;53.614;9.894;2023-01-26T10:15:47;102079.88;;;0.49;85.63
21781;BME280;52576;53.614;9.894;2023-01-26T10:17:52;102082.44;;;0.52;85.64
21781;BME280;52576;53.614;9.894;2023-01-26T10:20:00;102086.72;;;0.53;85.63
21781;BME280;52576;53.614;9.894;2023-01-26T10:22:11;102079.81;;;0.53;85.50
21781;BME280;52576;53.614;9.894;2023-01-26T10:24:20;102077.25;;;0.55;85.75
21781;BME280;52576;53.614;9.894;2023-01-26T10:26:29;102066.91;;;0.58;85.85
21781;BME280;52576;53.614;9.894;2023-01-26T10:28:33;102066.91;;;0.58;85.64
21781;BME280;52576;53.614;9.894;2023-01-26T10:30:38;102065.19;;;0.60;85.81
21781;BME280;52576;53.614;9.894;2023-01-26T10:32:44;102065.16;;;0.63;85.78
21781;BME280;52576;53.614;9.894;2023-01-26T10:34:50;102059.13;;;0.65;85.71
21781;BME280;52576;53.614;9.894;2023-01-26T10:36:59;102054.81;;;0.71;85.79
21781;BME280;52576;53.614;9.894;2023-01-26T10:39:04;102053.94;;;0.76;85.76
21781;BME280;52576;53.614;9.894;2023-01-26T10:41:24;102059.03;;;0.82;85.75
21781;BME280;52576;53.614;9.894;2023-01-26T10:43:30;102063.31;;;0.86;85.75
21781;BME280;52576;53.614;9.894;2023-01-26T10:45:43;102059.84;;;0.90;85.80
21781;BME280;52576;53.614;9.894;2023-01-26T10:48:01;102068.44;;;0.95;85.78
21781;BME280;52576;53.614;9.894;2023-01-26T10:50:20;102066.69;;;0.97;85.74
21781;BME280;52576;53.614;9.894;2023-01-26T10:52:24;102068.41;;;0.97;85.65
21781;BME280;52576;53.614;9.894;2023-01-26T10:54:27;102079.63;;;0.94;85.65
21781;BME280;52576;53.614;9.894;2023-01-26T10:56:30;102070.16;;;0.95;85.71
21781;BME280;52576;53.614;9.894;2023-01-26T10:58:44;102074.44;;;0.94;85.89
21781;BME280;52576;53.614;9.894;2023-01-26T11:00:54;102085.63;;;0.96;85.86
21781;BME280;52576;53.614;9.894;2023-01-26T11:03:03;102081.34;;;0.95;85.88
21781;BME280;52576;53.614;9.894;2023-01-26T11:05:19;102077.91;;;0.93;85.83
21781;BME280;52576;53.614;9.894;2023-01-26T11:07:24;102077.88;;;0.96;85.97
21781;BME280;52576;53.614;9.894;2023-01-26T11:09:28;102080.44;;;0.99;85.95